Time;durP1;ratioP1;P1;durP2;ratioP2;P2;SDS_P1;SDS_P2;PMS_P1;PMS_P2;Temp;Humidity;BMP_temperature;BMP_pressure;BME280_temperature;BME280_humidity;BME280_pressure;Samples;Min_cycle;Max_cycle;Signal;HPM_P1;HPM_P2
2022/12/12 05:00:15;;;;;;;45.40;21.60;;;0.00;99.90;;;;;;6046805;23;20389;31
2022/12/12 05:02:51;;;;;;;39.23;19.30;;;0.10;99.90;;;;;;4907557;29;20476;-74
2022/12/12 05:05:22;;;;;;;38.53;19.43;;;0.10;99.90;;;;;;4908981;29;20463;-74
2022/12/12 05:07:56;;;;;;;43.50;24.10;;;0.10;99.90;;;23.80;0.00;146495.75;4909420;29;20447;-74
2022/12/12 05:10:23;;;;;;;47.60;24.33;;;0.10;99.90;;;;;;4909442;29;21034;-74
2022/12/12 05:12:58;;;;;;;33.37;21.10;;;0.10;99.90;;;;;;4909589;29;20465;-74
2022/12/12 05:15:27;;;;;;;33.93;19.93;;;0.10;99.90;;;;;;4909335;29;20470;-74
2022/12/12 05:18:00;;;;;;;35.60;19.27;;;0.10;99.90;;;;;;4908485;29;20495;-74
2022/12/12 05:20:27;;;;;;;34.40;19.17;;;0.10;99.90;;;;;;4909978;29;20451;-74
2022/12/12 05:22:54;;;;;;;36.83;19.13;;;0.10;99.90;;;;;;4909528;29;20463;-74
2022/12/12 05:25:21;;;;;;;36.80;18.93;;;0.10;99.90;;;;;;4909660;29;20964;-74
2022/12/12 05:27:47;;;;;;;37.57;18.23;;;0.10;99.90;;;;;;4909436;29;20810;-74
2022/12/12 05:30:14;;;;;;;45.87;21.50;;;0.00;99.90;;;;;;4909463;29;20818;-74
2022/12/12 05:32:42;;;;;;;44.43;21.20;;;0.00;99.90;;;;;;4909231;29;20447;-74
2022/12/12 05:35:10;;;;;;;38.27;19.87;;;0.00;99.90;;;;;;4910101;29;20455;-74
2022/12/12 05:37:36;;;;;;;37.63;20.67;;;0.00;99.90;;;;;;4909126;29;20495;-74
2022/12/12 05:40:04;;;;;;;37.67;19.30;;;0.00;99.90;;;;;;4909453;29;20455;-73
2022/12/12 05:42:31;;;;;;;40.50;20.53;;;0.10;99.90;;;;;;4909518;29;20490;-74
2022/12/12 05:44:57;;;;;;;41.10;20.80;;;0.10;99.90;;;;;;4909767;29;20459;-74
2022/12/12 05:47:24;;;;;;;40.43;20.33;;;0.20;99.90;;;;;;4908981;29;20455;-74
2022/12/12 05:49:52;;;;;;;39.00;21.37;;;0.20;99.90;;;;;;4909543;29;20491;-74
2022/12/12 05:52:19;;;;;;;38.70;20.20;;;0.20;99.90;;;;;;4909392;29;20487;-74
2022/12/12 05:54:46;;;;;;;39.70;21.00;;;0.20;99.90;;;;;;4909363;29;20967;-74
2022/12/12 05:57:13;;;;;;;37.53;20.30;;;0.20;99.90;;;;;;4908637;29;20498;-74
2022/12/12 05:59:40;;;;;;;41.20;19.20;;;0.20;99.90;;;;;;4908997;29;21311;-74
2022/12/12 06:02:06;;;;;;;45.00;23.00;;;0.20;99.90;;;;;;4911401;29;20483;-75
2022/12/12 06:04:33;;;;;;;43.67;21.93;;;0.20;99.90;;;;;;4910690;29;20467;-66
2022/12/12 06:07:01;;;;;;;40.20;20.60;;;0.20;99.90;;;;;;4908906;29;20448;-75
2022/12/12 06:09:28;;;;;;;41.30;20.97;;;0.10;99.90;;;;;;4911316;29;20459;-78
2022/12/12 06:11:55;;;;;;;44.97;25.10;;;0.10;99.90;;;;;;4911397;29;20446;-79
2022/12/12 06:14:22;;;;;;;40.40;22.10;;;0.40;99.90;;;;;;4911714;29;20219;-76
2022/12/12 06:16:49;;;;;;;41.67;21.40;;;0.50;99.90;;;;;;4914857;29;20502;-76
2022/12/12 06:19:17;;;;;;;39.10;19.90;;;0.40;99.90;;;;;;4915668;29;20466;-83
2022/12/12 06:21:44;;;;;;;38.03;19.90;;;0.30;99.90;;;;;;4915513;29;20482;-77
2022/12/12 06:24:12;;;;;;;39.37;19.90;;;0.30;99.90;;;;;;4915311;29;20952;-79
2022/12/12 06:26:39;;;;;;;40.47;21.20;;;0.20;99.90;;;;;;4914849;29;20467;-78
2022/12/12 06:29:06;;;;;;;42.20;22.60;;;0.20;99.90;;;;;;4914958;29;20458;-79
2022/12/12 06:31:33;;;;;;;47.80;21.00;;;0.10;99.90;;;;;;4914726;29;20663;-77
2022/12/12 06:34:00;;;;;;;45.00;21.53;;;0.10;99.90;;;;;;4915424;29;20480;-79
2022/12/12 06:36:27;;;;;;;43.23;21.00;;;0.10;99.90;;;;;;4914507;29;20481;-76
2022/12/12 06:38:56;;;;;;;36.07;19.10;;;0.10;99.90;;;;;;4915103;29;20846;-82
2022/12/12 06:41:26;;;;;;;39.40;20.93;;;0.10;99.90;;;;;;4914918;29;20475;-78
2022/12/12 06:43:53;;;;;;;41.80;21.23;;;0.10;99.90;;;;;;4915213;29;20459;-77
2022/12/12 06:46:23;;;;;;;44.20;22.70;;;0.10;99.90;;;;;;4914898;29;20477;-75
2022/12/12 06:48:50;;;;;;;45.53;24.17;;;0.10;99.90;;;;;;4902444;29;20451;-76
2022/12/12 06:51:19;;;;;;;43.53;21.57;;;0.10;99.90;;;;;;4903396;29;20481;-80
2022/12/12 06:53:46;;;;;;;42.93;21.00;;;0.10;99.90;;;;;;4895905;29;20459;-77
2022/12/12 06:56:15;;;;;;;41.37;20.80;;;0.10;99.90;;;;;;4895652;29;20464;-82
2022/12/12 06:58:45;;;;;;;50.80;23.30;;;0.00;99.90;;;;;;4895773;29;20503;-78
2022/12/12 07:01:14;;;;;;;43.40;21.40;;;0.10;99.90;;;;;;4895754;29;21323;-81
2022/12/12 07:03:41;;;;;;;44.87;21.10;;;0.00;99.90;;;;;;4895816;29;21010;-84
2022/12/12 07:06:08;;;;;;;40.03;19.77;;;0.00;99.90;;;;;;4895442;29;20456;-77
2022/12/12 07:08:35;;;;;;;42.13;21.00;;;0.00;99.90;;;;;;4895992;29;20452;-76
2022/12/12 07:11:03;;;;;;;49.30;25.17;;;0.00;99.90;;;;;;4895967;29;20516;-77
2022/12/12 07:13:30;;;;;;;43.40;21.63;;;-0.10;99.90;;;;;;4894247;29;20815;-77
2022/12/12 07:15:58;;;;;;;44.30;22.83;;;-0.10;99.90;;;;;;4909050;29;20447;-76
2022/12/12 07:18:25;;;;;;;41.20;21.43;;;-0.10;99.90;;;;;;4914117;29;20497;-77
2022/12/12 07:20:52;;;;;;;43.67;20.57;;;-0.10;99.90;;;;;;4913843;29;20854;-76
2022/12/12 07:23:19;;;;;;;44.20;22.13;;;-0.10;99.90;;;;;;4912484;29;20452;-77
2022/12/12 07:25:46;;;;;;;44.80;20.87;;;-0.10;99.90;;;;;;4913146;29;20443;-77
2022/12/12 07:28:14;;;;;;;35.67;20.73;;;-0.10;99.90;;;;;;4895884;29;20452;-75
2022/12/12 07:30:43;;;;;;;47.73;22.50;;;-0.10;99.90;;;;;;4895012;29;20468;-76
2022/12/12 07:33:12;;;;;;;39.23;21.10;;;0.00;99.90;;;;;;4895192;29;20591;-76
2022/12/12 07:35:40;;;;;;;40.97;20.93;;;-0.10;99.90;;;;;;4894694;29;20456;-76
2022/12/12 07:38:07;;;;;;;45.03;22.67;;;-0.10;99.90;;;;;;4894473;29;20500;-80
2022/12/12 07:40:34;;;;;;;38.50;20.47;;;-0.10;99.90;;;;;;4894856;29;21010;-76
2022/12/12 07:43:01;;;;;;;36.30;20.43;;;-0.10;99.90;;;;;;4893960;29;20456;-76
2022/12/12 07:45:28;;;;;;;43.87;22.53;;;0.00;99.90;;;;;;4901672;29;20460;-79
2022/12/12 07:47:55;;;;;;;44.87;21.60;;;0.00;99.90;;;;;;4893781;29;20456;-77
2022/12/12 07:50:23;;;;;;;59.53;27.73;;;0.00;99.90;;;;;;4894655;29;20456;-77
2022/12/12 07:52:50;;;;;;;53.73;27.83;;;0.00;99.90;;;;;;4894844;29;20464;-77
2022/12/12 07:55:17;;;;;;;43.93;21.90;;;0.00;99.90;;;;;;4894845;29;20462;-77
2022/12/12 07:57:43;;;;;;;38.63;20.20;;;0.10;99.90;;;;;;4894156;29;21008;-76
2022/12/12 08:00:13;;;;;;;44.77;19.53;;;0.00;99.90;;;;;;4894296;29;20460;-77
2022/12/12 08:02:40;;;;;;;40.60;20.63;;;0.00;99.90;;;;;;4899813;29;20459;-76
2022/12/12 08:05:08;;;;;;;46.53;22.90;;;0.00;99.90;;;;;;4899928;29;20448;-76
2022/12/12 08:07:36;;;;;;;48.53;22.27;;;0.00;99.90;;;;;;4897865;29;20823;-78
2022/12/12 08:10:04;;;;;;;48.40;21.80;;;0.00;99.90;;;;;;4893637;29;20953;-78
2022/12/12 08:12:31;;;;;;;42.40;20.90;;;0.10;99.90;;;;;;4897195;29;20558;-76
2022/12/12 08:14:58;;;;;;;52.90;22.87;;;0.10;99.90;;;;;;4907072;29;20456;-78
2022/12/12 08:17:24;;;;;;;44.63;23.10;;;0.10;99.90;;;;;;4900138;29;20503;-81
2022/12/12 08:19:52;;;;;;;42.40;22.53;;;0.10;99.90;;;;;;4892542;29;20546;-77
2022/12/12 08:22:19;;;;;;;46.57;21.90;;;0.10;99.90;;;;;;4893530;29;20495;-77
2022/12/12 08:24:48;;;;;;;41.17;22.23;;;0.10;99.90;;;;;;4894591;29;20464;-77
2022/12/12 08:27:15;;;;;;;48.93;22.63;;;0.20;99.90;;;;;;4895857;29;20645;-76
2022/12/12 08:29:42;;;;;;;46.33;23.10;;;0.10;99.90;;;;;;4892831;29;20460;-81
2022/12/12 08:32:09;;;;;;;41.77;21.20;;;0.10;99.90;;;;;;4892804;29;21072;-78
2022/12/12 08:34:36;;;;;;;42.03;22.43;;;0.10;99.90;;;;;;4893147;29;20470;-77
2022/12/12 08:37:03;;;;;;;45.23;22.27;;;0.20;99.90;;;;;;4892472;29;20467;-83
2022/12/12 08:39:29;;;;;;;43.63;21.10;;;0.20;99.90;;;;;;4893472;29;20517;-77
2022/12/12 08:41:59;;;;;;;41.80;21.03;;;0.20;99.90;;;;;;4903109;29;20490;-77
2022/12/12 08:44:25;;;;;;;47.50;22.77;;;0.30;99.90;;;;;;4912089;29;20464;-77
2022/12/12 08:46:52;;;;;;;40.77;21.33;;;0.20;99.90;;;;;;4912052;29;20470;-76
2022/12/12 08:49:19;;;;;;;42.77;22.47;;;0.30;99.90;;;;;;4912364;29;20468;-81
2022/12/12 08:51:46;;;;;;;41.30;21.07;;;0.30;99.90;;;;;;4911860;29;20494;-76
2022/12/12 08:54:13;;;;;;;41.03;22.50;;;0.40;99.90;;;;;;4912789;29;20466;-75
2022/12/12 08:56:40;;;;;;;43.00;22.63;;;0.40;99.90;;;;;;4912170;29;20838;-76
2022/12/12 08:59:09;;;;;;;44.73;23.13;;;0.40;99.90;;;;;;4911664;29;20499;-76
2022/12/12 09:01:36;;;;;;;44.67;22.50;;;0.40;99.90;;;;;;4911868;29;20542;-75
2022/12/12 09:04:02;;;;;;;46.27;23.40;;;0.30;99.90;;;;;;4912185;29;20455;-76
2022/12/12 09:06:30;;;;;;;44.17;23.13;;;0.30;99.90;;;;;;4912260;29;20459;-82
2022/12/12 09:08:57;;;;;;;57.70;24.80;;;0.30;99.90;;;;;;4912503;29;20550;-76
2022/12/12 09:11:24;;;;;;;51.23;24.80;;;0.30;99.90;;;;;;4912031;29;20473;-76
2022/12/12 09:13:51;;;;;;;52.23;26.33;;;0.30;99.90;;;;;;4901430;29;21178;-76
2022/12/12 09:16:22;;;;;;;51.07;25.93;;;0.10;99.90;;;;;;4893217;29;20460;-75
2022/12/12 09:18:49;;;;;;;54.80;28.70;;;0.00;99.90;;;;;;4893307;29;21384;-76
2022/12/12 09:21:16;;;;;;;56.03;26.70;;;0.00;99.90;;;;;;4893962;29;21297;-77
2022/12/12 09:23:43;;;;;;;52.57;26.87;;;0.10;99.90;;;;;;4893849;29;20454;-80
2022/12/12 09:26:10;;;;;;;55.03;26.80;;;0.10;99.90;;;;;;4892734;29;20468;-76
2022/12/12 09:28:37;;;;;;;51.53;26.17;;;0.00;99.90;;;;;;4892847;29;20456;-76
2022/12/12 09:31:05;;;;;;;52.50;25.93;;;-0.10;99.90;;;;;;4893686;29;20487;-79
2022/12/12 09:33:34;;;;;;;50.30;25.80;;;0.00;99.90;;;;;;4893236;29;20456;-75
2022/12/12 09:36:03;;;;;;;47.70;25.57;;;-0.10;99.90;;;;;;4892632;29;20551;-75
2022/12/12 09:38:30;;;;;;;51.93;24.57;;;-0.10;99.90;;;;;;4893447;29;21039;-76
2022/12/12 09:40:59;;;;;;;45.07;24.40;;;-0.30;99.90;;;;;;4893395;29;20490;-82
2022/12/12 09:43:30;;;;;;;48.80;26.27;;;-0.30;99.90;;;;;;4893298;29;20535;-76
2022/12/12 09:45:58;;;;;;;56.30;26.47;;;-0.30;99.90;;;;;;4893845;29;20455;-77
2022/12/12 09:48:30;;;;;;;46.30;22.93;;;-0.40;99.90;;;;;;4893717;29;20538;-80
2022/12/12 09:50:59;;;;;;;49.47;24.70;;;-0.40;99.90;;;;;;4892805;29;20476;-80
2022/12/12 09:53:26;;;;;;;49.67;27.40;;;-0.40;99.90;;;;;;4893982;29;20464;-78
2022/12/12 09:56:00;;;;;;;54.80;25.33;;;-0.30;99.90;;;;;;4893197;29;20460;-76
2022/12/12 09:58:34;;;;;;;46.60;25.87;;;-0.20;99.90;;;;;;4893405;29;20480;-83
2022/12/12 10:01:06;;;;;;;48.93;25.10;;;-0.10;99.90;;;;;;4893041;29;20494;-75
2022/12/12 10:03:52;;;;;;;51.17;24.83;;;-0.20;99.90;;;;;;4905883;29;20974;-76
2022/12/12 10:06:22;;;;;;;50.47;24.33;;;-0.20;99.90;;;;;;4911444;29;20460;-75
2022/12/12 10:08:57;;;;;;;55.93;26.50;;;-0.20;99.90;;;;;;4905026;29;20452;-76
2022/12/12 10:14:14;;;;;;;64.53;30.20;;;-0.20;99.90;;;;;;4904701;29;20891;-73
2022/12/12 10:16:42;;;;;;;46.80;25.00;;;-0.20;99.90;;;;;;4892208;29;20468;-81
2022/12/12 10:19:17;;;;;;;43.13;23.23;;;-0.20;99.90;;;;;;4892644;29;20500;-83
2022/12/12 10:21:47;;;;;;;47.00;26.20;;;-0.20;99.90;;;;;;4901201;29;20486;-76
2022/12/12 10:24:25;;;;;;;50.10;24.30;;;-0.30;99.90;;;;;;4910020;29;20466;-76
2022/12/12 10:26:53;;;;;;;46.43;23.53;;;-0.10;99.90;;;;;;4904029;29;20452;-77
2022/12/12 10:29:21;;;;;;;42.00;22.87;;;0.00;99.90;;;;;;4892403;29;20460;-76
2022/12/12 10:31:56;;;;;;;47.17;23.70;;;0.00;99.90;;;;;;4896248;29;20494;-81
2022/12/12 10:34:35;;;;;;;41.10;23.43;;;0.10;99.90;;;;;;4895631;29;20471;-78
2022/12/12 10:37:20;;;;;;;38.20;21.60;;;0.10;99.90;;;;;;4892205;29;21129;-79
2022/12/12 10:39:56;;;;;;;36.10;20.97;;;0.10;99.90;;;;;;4892649;29;20516;-77
2022/12/12 10:42:29;;;;;;;41.13;20.13;;;0.10;99.90;;;;;;4893642;29;20479;-78
2022/12/12 10:45:22;;;;;;;32.43;20.20;;;0.10;99.90;;;;;;4892879;29;20444;-77
2022/12/12 10:47:50;;;;;;;39.83;19.60;;;0.20;99.90;;;;;;4892553;29;20928;-79
2022/12/12 10:50:33;;;;;;;34.90;19.97;;;0.20;99.90;;;;;;4893420;29;20467;-76
2022/12/12 10:53:04;;;;;;;36.03;20.23;;;0.30;99.90;;;;;;4892718;29;20448;-78
2022/12/12 10:55:40;;;;;;;36.73;18.97;;;0.60;99.90;;;;;;4892446;29;20838;-81
2022/12/12 10:58:07;;;;;;;33.63;19.00;;;0.70;99.90;;;;;;4892176;29;20515;-82
2022/12/12 11:00:37;;;;;;;38.87;20.83;;;0.80;99.90;;;;;;4892455;29;20498;-77
2022/12/12 11:03:23;;;;;;;36.30;21.93;;;0.90;99.90;;;;;;4895400;29;20523;-77
2022/12/12 11:05:50;;;;;;;39.70;20.93;;;0.90;99.90;;;;;;4896450;29;20445;-78
2022/12/12 11:08:26;;;;;;;39.53;21.40;;;1.00;99.90;;;;;;4895728;29;20463;-76
2022/12/12 11:11:03;;;;;;;41.43;20.07;;;1.10;99.90;;;;;;4895769;29;20476;-76
2022/12/12 11:13:32;;;;;;;37.53;19.97;;;1.20;99.90;;;;;;4896676;29;20463;-77
2022/12/12 11:16:01;;;;;;;40.37;22.70;;;1.20;99.90;;;;;;4913562;29;20459;-76
2022/12/12 11:18:29;;;;;;;37.33;21.83;;;1.20;99.90;;;;;;4912958;29;20510;-78
2022/12/12 11:21:06;;;;;;;39.47;21.47;;;1.20;99.90;;;;;;4913689;29;20473;-79
2022/12/12 11:23:38;;;;;;;37.50;21.17;;;1.30;99.90;;;;;;4899365;29;20470;-79
2022/12/12 11:26:12;;;;;;;39.37;21.60;;;1.20;99.90;;;;;;4894773;29;20461;-78
2022/12/12 11:28:40;;;;;;;41.47;22.17;;;1.30;99.90;;;;;;4894382;29;20467;-77
2022/12/12 11:31:11;;;;;;;47.80;24.27;;;1.30;99.90;;;;;;4895238;29;20833;-77
2022/12/12 11:33:44;;;;;;;41.53;23.30;;;1.30;99.90;;;;;;4895262;29;20443;-78
2022/12/12 11:36:15;;;;;;;41.90;22.00;;;1.30;99.90;;;;;;4895952;29;20452;-76
2022/12/12 11:38:48;;;;;;;46.30;22.93;;;1.40;99.90;;;;;;4914243;29;20487;-77
2022/12/12 11:41:16;;;;;;;46.17;23.80;;;1.40;99.90;;;;;;4912724;29;20479;-77
2022/12/12 11:43:55;;;;;;;39.80;22.40;;;1.50;99.90;;;;;;4913528;29;20466;-76
2022/12/12 11:46:25;;;;;;;38.10;21.47;;;1.50;99.90;;;;;;4913444;29;20466;-77
2022/12/12 11:48:58;;;;;;;40.73;21.70;;;1.50;99.90;;;;;;4914048;29;20450;-76
2022/12/12 11:51:34;;;;;;;39.07;19.60;;;1.50;99.90;;;;;;4913928;29;20538;-83
2022/12/12 11:54:05;;;;;;;39.20;21.60;;;1.50;99.90;;;;;;4903441;29;20491;-78
2022/12/12 11:56:42;;;;;;;34.97;18.90;;;1.60;99.90;;;;;;4894515;29;20433;-80
2022/12/12 11:59:39;;;;;;;37.83;20.20;;;1.70;99.90;;;;;;4895183;29;20567;-77
2022/12/12 12:02:27;;;;;;;39.27;20.23;;;1.80;99.90;;;;;;4889630;29;20503;-77
2022/12/12 12:05:05;;;;;;;35.87;19.50;;;1.90;99.90;;;;;;4894378;29;20470;-77
2022/12/12 12:07:49;;;;;;;35.00;18.33;;;2.10;99.90;;;;;;4894378;29;20456;-80
2022/12/12 12:10:32;;;;;;;34.73;17.30;;;2.20;99.90;;;;;;4895359;29;20440;-77
2022/12/12 12:13:12;;;;;;;31.67;17.00;;;2.30;99.90;;;;;;4893973;29;20440;-78
2022/12/12 12:15:45;;;;;;;33.60;17.30;;;2.50;99.90;;;;;;4892317;29;20968;-69
2022/12/12 12:18:38;;;;;;;32.57;17.40;;;2.60;99.90;;;;;;4892674;29;20985;-77
2022/12/12 12:21:26;;;;;;;25.27;14.10;;;2.70;99.90;;;;;;4894261;29;20472;-78
2022/12/12 12:24:04;;;;;;;28.77;16.10;;;2.90;99.90;;;;;;4894496;29;20467;-76
2022/12/12 12:26:37;;;;;;;24.60;14.43;;;2.90;99.90;;;;;;4894496;29;20445;-79
2022/12/12 12:29:30;;;;;;;25.43;14.07;;;2.90;99.90;;;;;;4893930;29;20980;-77
2022/12/12 12:32:06;;;;;;;23.33;14.37;;;3.00;99.90;;;;;;4892521;29;20975;-75
2022/12/12 12:34:40;;;;;;;22.07;12.60;;;3.10;99.90;;;;;;4892530;29;20459;-77
2022/12/12 12:37:19;;;;;;;32.77;17.07;;;3.20;99.90;;;;;;4892460;29;21338;-79
2022/12/12 12:40:07;;;;;;;20.80;12.80;;;3.10;99.90;;;;;;4892541;29;20480;-78
2022/12/12 12:42:47;;;;;;;22.63;13.57;;;3.10;99.90;;;;;;4910681;29;20479;-77
2022/12/12 12:45:21;;;;;;;51.50;13.93;;;3.00;99.90;;;;;;4907982;29;20449;-78
2022/12/12 12:47:54;;;;;;;25.80;14.20;;;3.00;99.90;;;;;;4900138;29;20444;-78
2022/12/12 12:50:24;;;;;;;19.70;11.23;;;2.90;99.90;;;;;;4901925;29;20443;-75
2022/12/12 12:52:54;;;;;;;19.03;11.80;;;2.90;99.90;;;;;;4907924;29;20460;-76
2022/12/12 12:55:26;;;;;;;17.80;11.90;;;2.90;99.90;;;;;;4909311;29;20459;-76
2022/12/12 12:57:54;;;;;;;30.47;14.40;;;2.90;99.90;;;;;;4908815;29;20444;-76
2022/12/12 13:00:24;;;;;;;19.43;12.37;;;2.90;99.90;;;;;;4908757;29;20494;-76
2022/12/12 13:02:56;;;;;;;15.93;10.43;;;2.90;99.90;;;;;;4907892;29;20463;-75
2022/12/12 13:05:31;;;;;;;21.60;11.60;;;2.90;99.90;;;;;;4909590;29;20449;-76
2022/12/12 13:08:05;;;;;;;27.80;14.83;;;2.90;99.90;;;;;;4908139;29;21030;-76
2022/12/12 13:10:33;;;;;;;23.23;12.00;;;3.00;99.90;;;;;;4909014;29;20455;-77
2022/12/12 13:13:09;;;;;;;28.57;14.53;;;3.10;99.90;;;;;;4907850;29;20463;-76
2022/12/12 13:15:41;;;;;;;25.17;13.77;;;3.30;99.90;;;;;;4908101;29;20463;-76
2022/12/12 13:18:12;;;;;;;25.90;13.57;;;3.30;99.90;;;;;;4907856;29;20443;-76
2022/12/12 13:20:41;;;;;;;21.80;12.20;;;3.40;99.90;;;;;;4908257;29;20914;-76
2022/12/12 13:23:36;;;;;;;25.20;13.37;;;3.50;99.90;;;;;;4908061;29;20467;-76
2022/12/12 13:26:09;;;;;;;20.93;12.53;;;3.70;99.90;;;;;;4907425;29;20467;-76
2022/12/12 13:28:41;;;;;;;24.20;12.10;;;3.70;99.90;;;;;;4908168;29;20899;-77
2022/12/12 13:31:41;;;;;;;22.97;12.30;;;3.70;99.90;;;;;;4907550;29;20555;-76
2022/12/12 13:34:12;;;;;;;19.13;13.03;;;3.50;99.90;;;;;;4902981;29;20467;-75
2022/12/12 13:36:43;;;;;;;22.17;12.00;;;3.80;99.90;;;;;;4889136;29;20456;-77
2022/12/12 13:39:24;;;;;;;21.93;11.30;;;3.90;99.90;;;;;;4890542;29;20495;-77
2022/12/12 13:41:57;;;;;;;17.87;10.40;;;3.90;99.90;;;;;;4891977;29;20486;-76
2022/12/12 13:44:40;;;;;;;17.17;10.47;;;3.80;99.90;;;;;;4890908;29;20491;-75
2022/12/12 13:47:44;;;;;;;19.50;10.73;;;3.80;99.90;;;;;;4890672;29;20462;-76
2022/12/12 13:50:21;;;;;;;25.17;12.00;;;3.80;99.90;;;;;;4891654;29;20464;-76
2022/12/12 13:53:17;;;;;;;21.83;12.30;;;3.70;99.90;;;;;;4891737;29;20467;-77
2022/12/12 13:55:44;;;;;;;20.97;11.77;;;3.70;99.90;;;;;;4903502;29;20459;-77
2022/12/12 13:58:20;;;;;;;20.20;11.30;;;3.50;99.90;;;;;;4910741;29;20465;-77
2022/12/12 14:00:48;;;;;;;16.60;10.07;;;3.30;99.90;;;;;;4911099;29;20511;-77
2022/12/12 14:03:30;;;;;;;40.43;17.13;;;3.10;99.90;;;;;;4914446;29;20466;-76
2022/12/12 14:06:09;;;;;;;17.53;8.80;;;2.90;99.90;;;;;;4911829;29;20440;-78
2022/12/12 14:08:38;;;;;;;16.87;9.90;;;2.80;99.90;;;;;;4913049;29;20467;-76
2022/12/12 14:11:09;;;;;;;16.37;8.90;;;2.80;99.90;;;;;;4907497;29;20475;-76
2022/12/12 14:13:43;;;;;;;15.93;8.93;;;2.80;99.90;;;;;;4892755;29;20456;-76
2022/12/12 14:16:25;;;;;;;12.57;8.20;;;2.90;99.90;;;;;;4890068;29;21387;-76
2022/12/12 14:19:08;;;;;;;15.27;8.60;;;3.00;99.90;;;;;;4890330;29;20540;-76
2022/12/12 14:21:45;;;;;;;12.27;7.23;;;3.00;99.90;;;;;;4890328;29;20476;-76
2022/12/12 14:25:01;;;;;;;21.30;8.40;;;3.10;99.90;;;;;;4890075;29;20474;-75
2022/12/12 14:28:02;;;;;;;19.60;9.93;;;3.10;99.90;;;;;;4889559;29;20470;-75
2022/12/12 14:30:44;;;;;;;16.23;9.17;;;3.10;99.90;;;;;;4867267;29;20470;-76
2022/12/12 14:33:47;;;;;;;12.57;7.73;;;3.10;99.90;;;;;;4890533;29;20532;-75
2022/12/12 14:36:40;;;;;;;15.70;8.83;;;3.10;99.90;;;;;;4898380;29;20454;-77
2022/12/12 14:39:17;;;;;;;13.77;8.63;;;3.10;99.90;;;;;;4912785;29;20594;-75
2022/12/12 14:41:46;;;;;;;15.87;9.73;;;3.10;99.90;;;;;;4912374;29;20483;-77
2022/12/12 14:44:20;;;;;;;17.27;9.53;;;3.10;99.90;;;;;;4912604;29;20545;-74
2022/12/12 14:46:48;;;;;;;14.77;9.20;;;3.10;99.90;;;;;;4911344;29;20974;-75
2022/12/12 14:49:18;;;;;;;16.80;10.60;;;3.10;99.90;;;;;;4912461;29;20463;-75
2022/12/12 14:51:49;;;;;;;22.40;11.43;;;3.00;99.90;;;;;;4911955;29;21071;-76
2022/12/12 14:54:18;;;;;;;25.23;11.37;;;2.90;99.90;;;;;;4911060;29;20489;-76
2022/12/12 14:56:47;;;;;;;26.87;12.40;;;2.90;99.90;;;;;;4910375;29;20467;-76
2022/12/12 14:59:18;;;;;;;23.73;12.33;;;2.80;99.90;;;;;;4911845;29;21037;-75
2022/12/12 15:01:47;;;;;;;22.20;13.20;;;2.90;99.90;;;;;;4912055;29;20513;-76
2022/12/12 15:04:19;;;;;;;22.33;13.17;;;2.80;99.90;;;;;;4912141;29;20455;-75
2022/12/12 15:06:49;;;;;;;25.13;14.17;;;2.70;99.90;;;;;;4911722;29;20850;-76
2022/12/12 15:09:26;;;;;;;23.90;13.43;;;2.70;99.90;;;;;;4912488;29;20463;-76
2022/12/12 15:11:55;;;;;;;22.03;13.73;;;2.60;99.90;;;;;;4892891;29;20487;-76
2022/12/12 15:14:25;;;;;;;24.50;12.57;;;2.60;99.90;;;;;;4892770;29;20813;-75
2022/12/12 15:16:59;;;;;;;25.53;14.50;;;2.50;99.90;;;;;;4892406;29;20460;-76
2022/12/12 15:19:30;;;;;;;24.60;15.90;;;2.40;99.90;;;;;;4893409;29;20526;-75
2022/12/12 15:21:57;;;;;;;27.93;15.83;;;2.40;99.90;;;;;;4893009;29;21004;-76
2022/12/12 15:24:26;;;;;;;26.77;16.23;;;2.30;99.90;;;;;;4892074;29;20464;-77
2022/12/12 15:26:55;;;;;;;27.83;16.43;;;2.20;99.90;;;;;;4892607;29;20460;-76
2022/12/12 15:29:24;;;;;;;34.17;16.07;;;2.10;99.90;;;;;;4893071;29;20475;-75
2022/12/12 15:31:57;;;;;;;31.73;14.70;;;2.00;99.90;;;;;;4892729;29;20488;-75
2022/12/12 15:34:31;;;;;;;27.60;14.63;;;1.90;99.90;;;;;;4892945;29;20460;-75
2022/12/12 15:37:11;;;;;;;25.23;14.50;;;1.70;99.90;;;;;;4891749;29;20444;-74
2022/12/12 15:39:38;;;;;;;26.17;15.33;;;1.60;99.90;;;;;;4890827;29;20848;-68
2022/12/12 15:42:06;;;;;;;23.30;14.60;;;1.60;99.90;;;;;;4891647;29;20479;-73
2022/12/12 15:44:33;;;;;;;25.80;14.90;;;1.60;99.90;;;;;;4892622;29;20468;-72
2022/12/12 15:47:00;;;;;;;20.90;12.63;;;1.60;99.90;;;;;;4892011;29;20468;-72
2022/12/12 15:49:39;;;;;;;26.83;14.87;;;1.60;99.90;;;;;;4891876;29;20452;-72
2022/12/12 15:52:17;;;;;;;28.27;14.63;;;1.60;99.90;;;;;;4894767;29;20483;-72
2022/12/12 15:54:49;;;;;;;23.17;13.90;;;1.60;99.90;;;;;;4900240;29;20440;-72
2022/12/12 15:57:18;;;;;;;24.83;12.87;;;1.50;99.90;;;;;;4902177;29;20828;-72
2022/12/12 15:59:45;;;;;;;28.93;16.27;;;1.50;99.90;;;;;;4894101;29;20495;-71
2022/12/12 16:02:36;;;;;;;29.77;15.10;;;1.50;99.90;;;;;;4899979;29;20480;-73
2022/12/12 16:05:07;;;;;;;28.83;16.57;;;1.50;99.90;;;;;;4877853;29;20470;-77
2022/12/12 16:07:36;;;;;;;30.17;16.50;;;1.50;99.90;;;;;;4891577;29;20928;-72
2022/12/12 16:10:20;;;;;;;30.20;16.83;;;1.50;99.90;;;;;;4892036;29;20464;-72
2022/12/12 16:13:01;;;;;;;29.50;17.20;;;1.40;99.90;;;;;;4891908;29;20472;-73
2022/12/12 16:15:36;;;;;;;28.67;16.40;;;1.50;99.90;;;;;;4906821;29;20457;-73
2022/12/12 16:18:06;;;;;;;25.10;15.23;;;1.40;99.90;;;;;;4890789;29;20956;-72
2022/12/12 16:20:35;;;;;;;30.00;17.67;;;1.40;99.90;;;;;;4891848;29;20846;-72
2022/12/12 16:23:12;;;;;;;33.03;19.40;;;1.40;99.90;;;;;;4892291;29;20456;-72
2022/12/12 16:25:39;;;;;;;31.53;17.27;;;1.30;99.90;;;;;;4891998;29;20451;-75
2022/12/12 16:28:17;;;;;;;35.00;18.10;;;1.30;99.90;;;;;;4902264;29;20944;-72
2022/12/12 16:30:49;;;;;;;27.73;15.57;;;1.20;99.90;;;;;;4910334;29;20482;-72
2022/12/12 16:33:22;;;;;;;29.47;16.63;;;1.10;99.90;;;;;;4906729;29;20451;-72
2022/12/12 16:35:50;;;;;;;32.73;17.20;;;1.10;99.90;;;;;;4901551;29;20459;-74
2022/12/12 16:38:18;;;;;;;34.50;16.27;;;1.00;99.90;;;;;;4907776;29;20455;-72
2022/12/12 16:40:47;;;;;;;29.37;15.10;;;0.90;99.90;;;;;;4910686;29;20503;-74
2022/12/12 16:43:16;;;;;;;24.17;13.53;;;0.90;99.90;;;;;;4910517;29;20454;-72
2022/12/12 16:45:43;;;;;;;25.43;15.27;;;0.90;99.90;;;;;;4910393;29;20455;-74
2022/12/12 16:48:14;;;;;;;29.03;15.90;;;0.80;99.90;;;;;;4909897;29;20463;-74
2022/12/12 16:50:41;;;;;;;23.90;13.83;;;0.70;99.90;;;;;;4910576;29;20479;-74
2022/12/12 16:53:09;;;;;;;27.90;15.50;;;0.70;99.90;;;;;;4910058;29;20982;-74
2022/12/12 16:55:39;;;;;;;26.63;14.80;;;0.60;99.90;;;;;;4910416;29;20493;-74
2022/12/12 16:58:06;;;;;;;29.40;15.37;;;0.60;99.90;;;;;;4909184;29;20964;-70
2022/12/12 17:00:33;;;;;;;29.03;15.93;;;0.60;99.90;;;;;;4909403;29;20865;-73
2022/12/12 17:02:59;;;;;;;26.00;16.10;;;0.60;99.90;;;;;;4909881;29;20459;-75
2022/12/12 17:05:28;;;;;;;26.20;15.33;;;0.60;99.90;;;;;;4909652;29;20455;-74
2022/12/12 17:07:55;;;;;;;27.37;15.10;;;0.60;99.90;;;;;;4908788;29;20459;-74
2022/12/12 17:10:25;;;;;;;24.47;13.70;;;0.60;99.90;;;;;;4909604;29;20455;-74
2022/12/12 17:12:52;;;;;;;27.10;15.40;;;0.50;99.90;;;;;;4910329;29;20461;-73
2022/12/12 17:15:23;;;;;;;32.33;16.53;;;0.50;99.90;;;;;;4909956;29;20465;-73
2022/12/12 17:17:49;;;;;;;30.87;16.73;;;0.40;99.90;;;;;;4909214;29;20454;-74
2022/12/12 17:20:17;;;;;;;31.83;16.00;;;0.50;99.90;;;;;;4909306;29;20499;-74
2022/12/12 17:22:44;;;;;;;37.13;18.87;;;0.50;99.90;;;;;;4909868;29;20459;-72
2022/12/12 17:25:12;;;;;;;31.33;18.80;;;0.50;99.90;;;;;;4909498;29;20456;-72
2022/12/12 17:27:41;;;;;;;35.10;18.77;;;0.40;99.90;;;;;;4909107;29;20547;-72
2022/12/12 17:30:09;;;;;;;42.30;21.27;;;0.40;99.90;;;;;;4909603;29;20458;-72
2022/12/12 17:32:37;;;;;;;42.23;20.30;;;0.40;99.90;;;;;;4909325;29;20502;-72
2022/12/12 17:35:04;;;;;;;37.50;20.47;;;0.30;99.90;;;;;;4908939;29;20451;-72
2022/12/12 17:37:31;;;;;;;32.50;17.90;;;0.30;99.90;;;;;;4908955;29;20463;-72
2022/12/12 17:39:58;;;;;;;28.50;17.90;;;0.20;99.90;;;;;;4909665;29;20509;-72
2022/12/12 17:42:25;;;;;;;30.63;17.17;;;0.20;99.90;;;;;;4909437;29;20486;-72
2022/12/12 17:44:53;;;;;;;35.13;17.23;;;0.20;99.90;;;;;;4909391;29;20463;-72
2022/12/12 17:47:20;;;;;;;26.73;16.07;;;0.20;99.90;;;;;;4908870;29;20470;-74
2022/12/12 17:49:47;;;;;;;28.30;14.90;;;0.20;99.90;;;;;;4909805;29;20463;-74
2022/12/12 17:52:14;;;;;;;31.13;16.17;;;0.20;99.90;;;;;;4908714;29;20489;-74
2022/12/12 17:54:41;;;;;;;28.43;15.43;;;0.20;99.90;;;;;;4909287;29;20471;-74
2022/12/12 17:57:08;;;;;;;27.43;14.80;;;0.10;99.90;;;;;;4907369;29;20462;-74
2022/12/12 17:59:35;;;;;;;27.63;16.37;;;0.10;99.90;;;;;;4909724;29;20469;-73